Time;durP1;ratioP1;P1;durP2;ratioP2;P2;SDS_P1;SDS_P2;PMS_P1;PMS_P2;Temp;Humidity;BMP_temperature;BMP_pressure;BME280_temperature;BME280_humidity;BME280_pressure;Samples;Min_cycle;Max_cycle;Signal;HPM_P1;HPM_P2
2021/07/18 00:01:42;;;;;;;9.55;4.53;;;15.90;99.90;;;;;;5082406;28;20043;-66
2021/07/18 00:04:08;;;;;;;8.55;4.15;;;15.80;99.90;;;;;;5080098;28;20544;-66
2021/07/18 00:06:34;;;;;;;9.98;5.05;;;15.70;99.90;;;;;;5079753;28;20047;-66
2021/07/18 00:09:01;;;;;;;12.27;5.10;;;15.70;99.90;;;;;;5075762;28;20126;-66
2021/07/18 00:11:27;;;;;;;10.65;4.97;;;15.70;99.90;;;;;;5079772;28;21571;-66
2021/07/18 00:13:53;;;;;;;14.45;6.22;;;15.80;99.90;;;;;;5081664;28;20043;-66
2021/07/18 00:16:19;;;;;;;15.40;5.90;;;15.90;99.90;;;;;;5083125;28;20458;-66
2021/07/18 00:18:44;;;;;;;9.18;5.93;;;15.90;99.90;;;;;;5078120;28;20139;-66
2021/07/18 00:21:10;;;;;;;11.75;6.22;;;16.00;99.90;;;;;;5078434;28;20044;-66
2021/07/18 00:23:35;;;;;;;10.32;5.75;;;16.00;99.90;;;;;;5081314;28;20076;-66
2021/07/18 00:26:04;;;;;;;14.95;5.68;;;16.10;99.90;;;;;;5080621;28;20037;-66
2021/07/18 00:28:30;;;;;;;9.52;5.95;;;16.10;99.90;;;;;;5078908;28;20039;-66
2021/07/18 00:30:56;;;;;;;10.05;6.20;;;16.20;99.90;;;;;;5080709;28;20032;-66
2021/07/18 00:33:22;;;;;;;12.85;6.22;;;16.20;99.90;;;;;;5061536;28;20036;-66
2021/07/18 00:35:48;;;;;;;11.27;6.15;;;16.20;99.90;;;;;;5080450;28;20559;-66
2021/07/18 00:38:14;;;;;;;17.85;7.50;;;16.20;99.90;;;;;;5081691;28;20085;-66
2021/07/18 00:40:39;;;;;;;8.10;5.75;;;16.20;99.90;;;;;;5075678;28;20048;-66
2021/07/18 00:43:05;;;;;;;11.05;6.20;;;16.20;99.90;;;;;;5081693;28;20048;-66
2021/07/18 00:45:31;;;;;;;13.90;5.95;;;16.20;99.90;;;;;;5079191;28;20470;-66
2021/07/18 00:47:57;;;;;;;14.55;6.53;;;16.30;99.90;;;;;;5080659;28;22699;-66
2021/07/18 00:50:24;;;;;;;11.85;6.20;;;16.30;99.90;;;;;;5078433;28;20038;-66
2021/07/18 00:52:50;;;;;;;12.40;6.78;;;16.30;99.90;;;;;;5080474;28;20042;-66
2021/07/18 00:55:16;;;;;;;11.68;6.88;;;16.30;99.90;;;;;;5078119;28;20044;-66
2021/07/18 00:57:44;;;;;;;10.45;6.97;;;16.30;99.90;;;;;;5080482;28;20750;-66
2021/07/18 01:00:12;;;;;;;15.93;6.90;;;16.30;99.90;;;;;;5077195;28;20037;-66
2021/07/18 01:02:38;;;;;;;14.07;6.68;;;16.30;99.90;;;;;;5081171;28;20052;-66
2021/07/18 01:05:10;;;;;;;14.57;6.70;;;16.30;99.90;;;;;;5080987;28;20044;-66
2021/07/18 01:07:39;;;;;;;12.85;6.75;;;16.30;99.90;;;;;;5081320;28;20138;-66
2021/07/18 01:10:07;;;;;;;18.80;7.07;;;16.30;99.90;;;;;;5077967;28;20047;-66
2021/07/18 01:12:34;;;;;;;5.63;5.07;;;16.30;99.90;;;;;;5077933;28;20044;-66
2021/07/18 01:15:00;;;;;;;8.57;5.65;;;16.20;99.90;;;;;;5081290;28;20119;-66
2021/07/18 01:17:27;;;;;;;12.57;6.95;;;16.20;99.90;;;;;;5074997;28;20033;-66
2021/07/18 01:19:54;;;;;;;8.50;5.38;;;16.20;99.90;;;;;;5076156;28;20028;-66
2021/07/18 01:22:20;;;;;;;11.65;7.05;;;16.10;99.90;;;;;;5080184;28;20036;-66
2021/07/18 01:24:47;;;;;;;10.63;6.32;;;16.10;99.90;;;;;;5078304;28;20040;-66
2021/07/18 01:27:13;;;;;;;14.63;6.45;;;16.10;99.90;;;;;;5079175;28;20032;-66
2021/07/18 01:29:39;;;;;;;12.20;6.18;;;16.00;99.90;;;;;;5075917;28;20051;-66
2021/07/18 01:32:05;;;;;;;11.02;6.57;;;16.00;99.90;;;;;;5079538;28;20394;-66
2021/07/18 01:34:31;;;;;;;13.23;6.90;;;16.00;99.90;;;;;;5080602;28;20646;-66
2021/07/18 01:36:57;;;;;;;9.70;6.65;;;15.90;99.90;;;;;;5080134;28;20036;-66
2021/07/18 01:39:23;;;;;;;12.80;7.40;;;15.90;99.90;;;;;;5075092;28;20036;-66
2021/07/18 01:41:51;;;;;;;13.82;7.78;;;15.90;99.90;;;;;;5079638;28;20043;-66
2021/07/18 01:44:16;;;;;;;11.15;7.55;;;15.90;99.90;;;;;;5079944;28;20044;-66
2021/07/18 01:46:43;;;;;;;11.20;7.13;;;15.90;99.90;;;;;;5078664;28;20040;-66
2021/07/18 01:49:09;;;;;;;10.68;7.28;;;15.90;99.90;;;;;;5074475;28;20358;-66
2021/07/18 01:51:36;;;;;;;12.50;7.78;;;15.90;99.90;;;;;;5079421;28;20061;-66
2021/07/18 01:54:03;;;;;;;12.63;8.80;;;15.90;99.90;;;;;;5079223;28;20489;-66
2021/07/18 01:56:29;;;;;;;11.57;9.50;;;15.80;99.90;;;;;;5079470;28;20028;-66
2021/07/18 01:58:56;;;;;;;14.23;9.00;;;15.90;99.90;;;;;;5074879;28;20051;-66
2021/07/18 02:01:27;;;;;;;14.38;9.60;;;15.90;99.90;;;;;;5078430;28;20050;-66
2021/07/18 02:03:56;;;;;;;11.77;9.43;;;15.90;99.90;;;;;;5077664;28;20402;-66
2021/07/18 02:06:24;;;;;;;17.52;10.02;;;15.90;99.90;;;;;;5078179;28;20059;-66
2021/07/18 02:08:54;;;;;;;10.20;8.20;;;15.90;99.90;;;;;;5074113;28;20566;-66
2021/07/18 02:11:22;;;;;;;11.23;9.13;;;15.90;99.90;;;;;;5082222;28;20458;-66
2021/07/18 02:13:52;;;;;;;9.98;8.43;;;15.80;99.90;;;;;;5078826;28;20401;-66
2021/07/18 02:16:19;;;;;;;10.70;8.27;;;15.80;99.90;;;;;;5077516;28;20039;-66
2021/07/18 02:18:46;;;;;;;10.68;8.73;;;15.80;99.90;;;;;;5075897;28;20040;-66
2021/07/18 02:21:12;;;;;;;9.65;8.13;;;15.80;99.90;;;;;;5079079;28;20071;-66
2021/07/18 02:23:38;;;;;;;8.95;8.05;;;15.70;99.90;;;;;;5078311;28;20044;-66
2021/07/18 02:26:04;;;;;;;10.82;8.15;;;15.70;99.90;;;;;;5082152;28;20045;-66
2021/07/18 02:28:30;;;;;;;9.25;8.38;;;15.90;99.90;;;;;;5081343;28;20051;-66
2021/07/18 02:30:56;;;;;;;15.07;10.98;;;15.80;99.90;;;;;;5081033;28;20044;-66
2021/07/18 02:33:22;;;;;;;12.45;8.82;;;15.70;99.90;;;;;;5064240;28;20036;-66
2021/07/18 02:35:49;;;;;;;10.27;8.57;;;15.70;99.90;;;;;;5083661;28;20048;-66
2021/07/18 02:38:14;;;;;;;10.90;8.52;;;15.70;99.90;;;;;;5083130;28;20044;-67
2021/07/18 02:40:40;;;;;;;10.70;8.23;;;15.70;99.90;;;;;;5081646;28;20059;-66
2021/07/18 02:43:06;;;;;;;10.50;8.43;;;15.70;99.90;;;;;;5085672;28;20040;-66
2021/07/18 02:45:32;;;;;;;11.25;8.45;;;15.70;99.90;;;;;;5083895;28;20047;-66
2021/07/18 02:47:58;;;;;;;12.90;8.85;;;15.70;99.90;;;;;;5083598;28;20146;-66
2021/07/18 02:50:28;;;;;;;9.90;8.85;;;15.70;99.90;;;;;;5093767;28;20040;-66
2021/07/18 02:52:55;;;;;;;12.68;9.13;;;15.70;99.90;;;;;;5086270;28;20085;-66
2021/07/18 02:55:21;;;;;;;16.35;8.98;;;15.70;99.90;;;;;;5084239;28;20066;-66
2021/07/18 02:57:47;;;;;;;11.63;9.38;;;15.70;99.90;;;;;;5084807;28;20060;-66
2021/07/18 03:00:19;;;;;;;13.35;8.93;;;15.70;99.90;;;;;;5081556;28;20047;-66
2021/07/18 03:02:45;;;;;;;9.93;8.70;;;15.60;99.90;;;;;;5086030;28;20040;-66
2021/07/18 03:05:12;;;;;;;14.63;9.43;;;15.60;99.90;;;;;;5085089;28;20051;-66
2021/07/18 03:07:40;;;;;;;19.73;9.68;;;15.60;99.90;;;;;;5082795;28;20040;-66
2021/07/18 03:10:07;;;;;;;13.68;9.93;;;15.60;99.90;;;;;;5095086;28;20510;-66
2021/07/18 03:12:33;;;;;;;14.98;9.20;;;15.60;99.90;;;;;;5073187;28;20788;-66
2021/07/18 03:15:01;;;;;;;12.85;9.77;;;15.60;99.90;;;;;;5083176;28;20118;-66
2021/07/18 03:17:26;;;;;;;12.70;8.80;;;15.60;99.90;;;;;;5082785;28;21322;-66
2021/07/18 03:19:52;;;;;;;13.80;8.63;;;15.60;99.90;;;;;;5079328;28;20036;-66
2021/07/18 03:22:19;;;;;;;11.70;8.25;;;15.50;99.90;;;;;;5085912;28;20039;-66
2021/07/18 03:24:44;;;;;;;14.27;9.57;;;15.50;99.90;;;;;;5084144;28;20028;-66
2021/07/18 03:27:10;;;;;;;15.88;10.18;;;15.50;99.90;;;;;;5083578;28;20119;-66
2021/07/18 03:29:36;;;;;;;13.93;10.20;;;15.50;99.90;;;;;;5079520;28;20033;-66
2021/07/18 03:32:02;;;;;;;12.63;9.40;;;15.50;99.90;;;;;;5084043;28;20111;-66
2021/07/18 03:34:28;;;;;;;11.43;9.40;;;15.50;99.90;;;;;;5084079;28;20044;-66
2021/07/18 03:36:54;;;;;;;14.32;10.60;;;15.50;99.90;;;;;;5082615;28;20051;-66
2021/07/18 03:39:19;;;;;;;13.07;9.85;;;15.50;99.90;;;;;;5078894;28;20800;-65
2021/07/18 03:41:45;;;;;;;17.35;12.35;;;15.60;99.90;;;;;;5086932;28;20043;-66
2021/07/18 03:44:11;;;;;;;17.00;11.10;;;15.60;99.90;;;;;;5087840;28;20044;-66
2021/07/18 03:46:36;;;;;;;15.25;11.02;;;15.60;99.90;;;;;;5086496;28;20044;-66
2021/07/18 03:49:02;;;;;;;16.83;11.57;;;15.60;99.90;;;;;;5080826;28;20066;-66
2021/07/18 03:51:28;;;;;;;19.48;12.32;;;15.70;99.90;;;;;;5087616;28;20079;-66
2021/07/18 03:53:53;;;;;;;17.38;12.23;;;15.70;99.90;;;;;;5086435;28;20039;-66
2021/07/18 03:56:22;;;;;;;18.33;11.98;;;15.70;99.90;;;;;;5086860;28;20036;-66
2021/07/18 03:58:51;;;;;;;14.52;12.02;;;15.80;99.90;;;;;;5082218;28;20454;-66
2021/07/18 04:01:17;;;;;;;20.88;12.68;;;15.80;99.90;;;;;;5086820;28;20067;-66
2021/07/18 04:03:46;;;;;;;21.15;13.10;;;15.80;99.90;;;;;;5087063;28;20110;-66
2021/07/18 04:06:16;;;;;;;23.45;14.23;;;15.90;99.90;;;;;;5082871;28;20115;-66
2021/07/18 04:08:43;;;;;;;15.32;11.93;;;15.80;99.90;;;;;;5079783;28;20063;-66
2021/07/18 04:11:10;;;;;;;17.80;13.07;;;15.90;99.90;;;;;;5084711;28;20592;-66
2021/07/18 04:13:37;;;;;;;15.88;11.80;;;15.90;99.90;;;;;;5087380;28;20044;-66
2021/07/18 04:16:03;;;;;;;21.23;13.68;;;15.90;99.90;;;;;;5082424;28;20037;-66
2021/07/18 04:18:29;;;;;;;13.90;11.90;;;16.00;99.90;;;;;;5083250;28;20040;-66
2021/07/18 04:20:55;;;;;;;27.83;12.13;;;16.00;99.90;;;;;;5084351;28;20429;-66
2021/07/18 04:23:21;;;;;;;23.08;10.00;;;16.10;99.90;;;;;;5086285;28;20036;-66
2021/07/18 04:25:47;;;;;;;19.35;8.90;;;16.10;99.90;;;;;;5086105;28;20036;-66
2021/07/18 04:28:13;;;;;;;11.95;8.20;;;16.10;99.90;;;;;;5087560;28;20034;-66
2021/07/18 04:30:40;;;;;;;8.98;8.07;;;16.10;99.90;;;;;;5082386;28;20047;-66
2021/07/18 04:33:06;;;;;;;12.80;8.40;;;16.10;99.90;;;;;;5085643;28;20036;-66
2021/07/18 04:35:31;;;;;;;30.58;8.35;;;16.20;99.90;;;;;;5084505;28;20501;-66
2021/07/18 04:37:57;;;;;;;12.20;7.05;;;16.20;99.90;;;;;;5084780;28;20131;-66
2021/07/18 04:40:23;;;;;;;13.73;7.15;;;16.30;99.90;;;;;;5083812;28;20504;-66
2021/07/18 04:42:49;;;;;;;8.55;6.72;;;16.40;99.90;;;;;;5085888;28;20140;-66
2021/07/18 04:45:16;;;;;;;17.13;6.47;;;16.50;99.90;;;;;;5085853;28;20490;-66
2021/07/18 04:47:53;;;;;;;8.85;6.47;;;16.60;99.90;;;;;;5086742;28;20047;-66
2021/07/18 04:50:20;;;;;;;15.75;6.82;;;16.70;99.90;;;;;;5082533;28;20067;-66
2021/07/18 04:52:46;;;;;;;19.75;7.18;;;16.80;99.90;;;;;;5085071;28;20036;-66
2021/07/18 04:55:13;;;;;;;6.63;6.03;;;16.90;99.90;;;;;;5085082;28;20040;-66
2021/07/18 04:57:39;;;;;;;6.35;5.72;;;17.60;99.90;;;;;;5087008;28;20040;-66
2021/07/18 05:00:09;;;;;;;6.18;5.55;;;18.10;99.90;;;;;;5081854;28;20803;-66
2021/07/18 05:02:36;;;;;;;6.75;6.15;;;18.40;99.90;;;;;;5086478;28;20043;-66
2021/07/18 05:05:03;;;;;;;6.75;6.05;;;18.70;99.90;;;;;;5086083;28;20044;-66
2021/07/18 05:07:28;;;;;;;7.18;6.57;;;18.70;99.90;;;;;;5085883;28;20448;-67
2021/07/18 05:09:54;;;;;;;7.13;6.47;;;18.80;99.90;;;;;;5082870;28;20383;-66
2021/07/18 05:12:20;;;;;;;9.35;6.93;;;18.80;99.90;;;;;;5085353;28;20153;-66
2021/07/18 05:14:46;;;;;;;7.35;6.75;;;18.80;99.90;;;;;;5085792;28;20116;-66
2021/07/18 05:17:15;;;;;;;11.30;7.90;;;18.90;99.90;;;;;;5085063;28;20040;-66
2021/07/18 05:19:41;;;;;;;7.75;5.93;;;19.10;99.90;;;;;;5076982;28;20043;-66
2021/07/18 05:22:08;;;;;;;6.38;5.78;;;19.90;99.90;;;;;;5078487;28;20029;-66
2021/07/18 05:24:34;;;;;;;6.03;5.45;;;21.00;99.90;;;;;;5076370;28;20662;-67
2021/07/18 05:27:01;;;;;;;7.03;5.15;;;22.10;99.90;;;;;;5076833;28;20037;-67
2021/07/18 05:29:26;;;;;;;5.25;4.70;;;23.10;99.90;;;;;;5076691;28;20480;-67
2021/07/18 05:31:52;;;;;;;6.13;5.63;;;24.20;99.90;;;;;;5080401;28;20222;-67
2021/07/18 05:34:18;;;;;;;6.75;4.97;;;25.30;99.90;;;;;;5081425;28;20077;-67
2021/07/18 05:36:44;;;;;;;7.30;4.97;;;26.10;99.90;;;;;;5078171;28;20473;-67
2021/07/18 05:39:10;;;;;;;5.82;4.43;;;26.70;98.70;;;;;;5076832;28;20051;-67
2021/07/18 05:41:35;;;;;;;5.65;4.00;;;27.50;97.50;;;;;;5076337;28;20072;-67
2021/07/18 05:44:01;;;;;;;5.85;4.63;;;28.00;96.10;;;;;;5080167;28;20040;-67
2021/07/18 05:46:26;;;;;;;7.25;4.72;;;28.50;94.40;;;;;;5079217;28;20044;-67
2021/07/18 05:48:52;;;;;;;5.40;4.43;;;28.40;93.20;;;;;;5074048;28;20039;-67
2021/07/18 05:51:18;;;;;;;5.25;4.45;;;27.80;93.50;;;;;;5079956;28;20040;-67
2021/07/18 05:53:44;;;;;;;5.95;4.25;;;27.30;94.60;;;;;;5077980;28;20101;-67
2021/07/18 05:56:09;;;;;;;6.43;5.13;;;26.80;95.30;;;;;;5079097;28;20044;-67
2021/07/18 05:58:35;;;;;;;5.78;4.43;;;26.40;96.10;;;;;;5075672;28;21561;-67
2021/07/18 06:01:01;;;;;;;8.63;5.15;;;26.10;96.80;;;;;;5077688;28;20101;-67
2021/07/18 06:03:26;;;;;;;6.32;4.50;;;25.70;96.90;;;;;;5061909;28;20552;-67
2021/07/18 06:05:52;;;;;;;10.93;5.10;;;25.60;97.30;;;;;;5075305;28;20048;-67
2021/07/18 06:08:18;;;;;;;7.32;4.65;;;25.50;97.70;;;;;;5078071;28;20036;-67
2021/07/18 06:10:44;;;;;;;9.10;5.05;;;25.30;98.20;;;;;;5077022;28;20444;-67
2021/07/18 06:13:09;;;;;;;5.97;3.78;;;25.30;98.00;;;;;;5081729;28;20044;-67
2021/07/18 06:15:35;;;;;;;15.75;12.27;;;25.30;98.30;;;;;;5077684;28;20544;-67
2021/07/18 06:18:01;;;;;;;8.75;5.80;;;25.30;98.30;;;;;;5078082;28;20048;-67
2021/07/18 06:20:26;;;;;;;7.32;4.50;;;25.20;98.30;;;;;;5077697;28;20043;-67
2021/07/18 06:22:52;;;;;;;6.75;4.25;;;25.20;98.60;;;;;;5078224;28;20093;-67
2021/07/18 06:25:18;;;;;;;5.05;4.63;;;25.20;98.80;;;;;;5079046;28;21030;-68
2021/07/18 06:27:46;;;;;;;7.70;4.40;;;25.10;98.70;;;;;;5077385;28;20675;-67
2021/07/18 06:30:13;;;;;;;5.40;4.45;;;25.20;98.60;;;;;;5075448;28;20047;-67
2021/07/18 06:32:40;;;;;;;6.47;4.25;;;25.20;98.80;;;;;;5080924;28;20066;-68
2021/07/18 06:35:07;;;;;;;5.20;4.20;;;25.20;98.60;;;;;;5075452;28;20044;-68
2021/07/18 06:37:33;;;;;;;6.53;3.95;;;25.20;98.80;;;;;;5079099;28;20036;-67
2021/07/18 06:40:00;;;;;;;5.43;4.35;;;25.30;98.90;;;;;;5078183;28;20132;-68
2021/07/18 06:42:26;;;;;;;7.18;4.35;;;25.40;98.80;;;;;;5080458;28;20036;-68
2021/07/18 06:44:52;;;;;;;5.78;4.50;;;25.40;98.60;;;;;;5080035;28;20036;-68
2021/07/18 06:47:17;;;;;;;5.93;3.90;;;25.40;98.30;;;;;;5078597;28;20096;-68
2021/07/18 06:49:43;;;;;;;8.23;4.13;;;25.50;98.40;;;;;;5074352;28;20063;-68
2021/07/18 06:52:09;;;;;;;5.88;3.95;;;25.50;98.20;;;;;;5078925;28;20040;-68
2021/07/18 06:54:35;;;;;;;6.70;4.68;;;25.50;98.00;;;;;;5096403;28;20040;-67
2021/07/18 06:57:00;;;;;;;7.65;4.70;;;25.60;97.80;;;;;;5061580;28;20139;-67
2021/07/18 06:59:29;;;;;;;5.68;5.03;;;25.60;97.90;;;;;;5076497;28;20068;-67
2021/07/18 07:01:55;;;;;;;6.63;5.05;;;25.60;98.10;;;;;;5075254;28;20390;-68
2021/07/18 07:04:21;;;;;;;8.63;5.97;;;25.60;98.10;;;;;;5077722;28;20059;-68
2021/07/18 07:06:47;;;;;;;6.15;5.18;;;25.60;98.20;;;;;;5077909;28;20041;-67
2021/07/18 07:09:13;;;;;;;8.27;5.03;;;25.60;98.20;;;;;;5073024;28;21148;-68
2021/07/18 07:11:39;;;;;;;6.78;4.63;;;25.60;98.30;;;;;;5093226;28;20436;-67
2021/07/18 07:14:05;;;;;;;5.72;4.53;;;25.50;98.50;;;;;;5080665;28;20047;-68
2021/07/18 07:16:32;;;;;;;4.85;4.32;;;25.60;98.30;;;;;;5085933;28;20061;-68
2021/07/18 07:18:58;;;;;;;7.93;4.20;;;25.70;97.70;;;;;;5084238;28;20047;-68
2021/07/18 07:21:31;;;;;;;5.20;3.90;;;25.70;97.60;;;;;;5088139;28;20036;-68
2021/07/18 07:24:09;;;;;;;9.05;4.07;;;25.90;97.40;;;;;;5089719;28;20055;-68
2021/07/18 07:26:35;;;;;;;5.53;4.22;;;26.00;96.90;;;;;;5088848;28;20048;-68
2021/07/18 07:29:03;;;;;;;5.63;4.03;;;26.10;97.20;;;;;;5077689;28;20578;-68
2021/07/18 07:31:29;;;;;;;5.45;3.42;;;26.20;97.50;;;;;;5082897;28;20040;-68
2021/07/18 07:33:56;;;;;;;5.30;3.45;;;26.40;97.70;;;;;;5086933;28;20032;-68
2021/07/18 07:36:22;;;;;;;7.60;4.55;;;26.40;97.50;;;;;;5084660;28;20131;-68
2021/07/18 07:38:48;;;;;;;7.57;3.92;;;26.40;97.30;;;;;;5082257;28;20043;-68
2021/07/18 07:41:14;;;;;;;7.75;4.45;;;26.40;97.30;;;;;;5082684;28;20032;-68
2021/07/18 07:43:40;;;;;;;9.88;4.43;;;26.50;96.70;;;;;;5088169;28;20591;-68
2021/07/18 07:46:06;;;;;;;5.63;3.58;;;26.40;96.90;;;;;;5088104;28;20382;-68
2021/07/18 07:48:32;;;;;;;5.95;3.22;;;26.50;95.90;;;;;;5081539;28;20036;-68
2021/07/18 07:50:58;;;;;;;6.35;3.53;;;26.50;95.90;;;;;;5087886;28;20562;-68
2021/07/18 07:53:25;;;;;;;7.78;3.65;;;26.60;95.70;;;;;;5084752;28;20055;-68
2021/07/18 07:55:51;;;;;;;5.00;2.53;;;26.80;95.50;;;;;;5079079;28;20122;-68
2021/07/18 07:58:17;;;;;;;4.82;2.53;;;26.90;95.20;;;;;;5085060;28;20451;-68
2021/07/18 08:00:43;;;;;;;6.95;2.80;;;26.90;94.90;;;;;;5086451;28;20127;-68
2021/07/18 08:03:09;;;;;;;5.13;2.83;;;27.00;95.00;;;;;;5087592;28;20139;-68
2021/07/18 08:05:36;;;;;;;3.50;2.13;;;27.00;95.00;;;;;;5083945;28;20131;-68
2021/07/18 08:08:05;;;;;;;4.45;2.97;;;27.00;94.60;;;;;;5083988;28;20074;-68
2021/07/18 08:10:32;;;;;;;6.68;2.78;;;27.00;94.20;;;;;;5082818;28;20043;-68
2021/07/18 08:12:59;;;;;;;5.70;2.38;;;27.00;94.20;;;;;;5085110;28;20043;-68
2021/07/18 08:15:26;;;;;;;6.68;2.60;;;27.00;93.80;;;;;;5088195;28;20470;-68
2021/07/18 08:17:52;;;;;;;5.88;2.63;;;27.10;93.50;;;;;;5086737;28;20580;-68
2021/07/18 08:20:21;;;;;;;5.45;2.92;;;26.90;93.30;;;;;;5081488;28;20050;-67
2021/07/18 08:22:49;;;;;;;4.95;2.88;;;26.90;94.30;;;;;;5085481;28;20568;-68
2021/07/18 08:25:17;;;;;;;2.63;2.10;;;26.90;94.70;;;;;;5088366;28;20146;-68
2021/07/18 08:27:43;;;;;;;5.55;2.20;;;27.00;93.70;;;;;;5084127;28;20089;-68
2021/07/18 08:30:19;;;;;;;4.55;2.92;;;27.10;94.00;;;;;;5065399;28;20040;-68
2021/07/18 08:32:45;;;;;;;3.88;2.13;;;27.10;94.20;;;;;;5088343;28;20043;-68
2021/07/18 08:35:11;;;;;;;3.95;1.98;;;27.20;94.50;;;;;;5087087;28;20044;-68
2021/07/18 08:37:38;;;;;;;3.78;2.80;;;27.40;94.60;;;;;;5085923;28;20200;-68
2021/07/18 08:40:08;;;;;;;3.78;2.30;;;27.50;94.10;;;;;;5079479;28;20040;-68
2021/07/18 08:42:35;;;;;;;4.18;2.33;;;27.60;93.50;;;;;;5081634;28;20078;-68
2021/07/18 08:45:02;;;;;;;7.53;3.30;;;27.70;93.90;;;;;;5084982;28;20067;-68
2021/07/18 08:47:28;;;;;;;6.43;2.97;;;27.60;93.60;;;;;;5071856;28;20040;-68
2021/07/18 08:49:54;;;;;;;7.35;2.17;;;27.60;94.00;;;;;;5053384;28;20481;-68
2021/07/18 08:52:22;;;;;;;4.22;2.30;;;27.70;94.60;;;;;;5077236;28;20040;-68
2021/07/18 08:54:50;;;;;;;4.80;2.55;;;27.70;93.60;;;;;;5084890;28;20048;-68
2021/07/18 08:57:21;;;;;;;3.70;2.50;;;27.70;93.40;;;;;;5086651;28;20066;-68
2021/07/18 08:59:47;;;;;;;5.13;2.60;;;27.80;94.30;;;;;;5084473;28;20840;-68
2021/07/18 09:02:14;;;;;;;3.97;2.38;;;27.80;93.30;;;;;;5083583;28;20075;-68
2021/07/18 09:04:39;;;;;;;4.30;2.15;;;27.90;92.60;;;;;;5081705;28;21370;-68
2021/07/18 09:07:07;;;;;;;4.18;1.38;;;27.70;92.80;;;;;;5082653;28;20039;-68
2021/07/18 09:09:37;;;;;;;5.20;1.60;;;27.80;93.60;;;;;;5077785;28;20131;-68
2021/07/18 09:12:09;;;;;;;4.93;1.40;;;27.90;94.00;;;;;;5098204;28;20153;-68
2021/07/18 09:14:38;;;;;;;2.92;1.27;;;27.90;93.90;;;;;;5083083;28;20044;-68
2021/07/18 09:17:08;;;;;;;4.65;1.65;;;28.00;93.00;;;;;;5082372;28;20028;-68
2021/07/18 09:19:35;;;;;;;3.05;1.40;;;27.90;92.60;;;;;;5061334;28;20573;-68
2021/07/18 09:22:04;;;;;;;2.35;1.38;;;27.90;92.10;;;;;;5086730;28;20036;-68
2021/07/18 09:24:43;;;;;;;4.00;2.17;;;28.00;92.20;;;;;;5084879;28;20043;-67
2021/07/18 09:27:21;;;;;;;2.10;1.20;;;28.10;92.90;;;;;;5085504;28;20048;-68
2021/07/18 09:29:55;;;;;;;3.63;1.98;;;28.20;91.90;;;;;;5083470;28;20628;-68
2021/07/18 09:32:26;;;;;;;3.70;1.43;;;28.10;91.20;;;;;;5085216;28;20074;-68
2021/07/18 09:35:04;;;;;;;3.55;1.33;;;28.20;91.10;;;;;;5085119;28;20186;-68
2021/07/18 09:37:33;;;;;;;4.95;1.30;;;28.30;91.50;;;;;;5084221;28;20044;-68
2021/07/18 09:40:02;;;;;;;1.95;1.23;;;28.30;90.80;;;;;;5080010;28;20058;-68
2021/07/18 09:42:32;;;;;;;3.42;1.25;;;28.30;90.40;;;;;;5085925;28;20047;-68
2021/07/18 09:44:59;;;;;;;2.13;1.33;;;28.30;91.30;;;;;;5087497;28;20043;-68
2021/07/18 09:47:25;;;;;;;5.30;2.03;;;28.30;90.90;;;;;;5084817;28;20040;-68
2021/07/18 09:49:51;;;;;;;3.20;1.20;;;28.40;90.70;;;;;;5082083;28;20065;-68
2021/07/18 09:52:28;;;;;;;4.97;1.35;;;28.50;90.50;;;;;;5085292;28;20040;-68
2021/07/18 09:54:58;;;;;;;4.80;1.30;;;28.40;90.80;;;;;;5085036;28;20119;-68
2021/07/18 09:57:42;;;;;;;6.18;0.80;;;28.40;90.20;;;;;;5083067;28;20109;-68
2021/07/18 10:00:10;;;;;;;2.53;1.23;;;28.50;90.40;;;;;;5081688;28;20040;-68
2021/07/18 10:02:39;;;;;;;4.72;1.13;;;28.50;90.30;;;;;;5084485;28;20043;-69
2021/07/18 10:05:06;;;;;;;3.17;1.23;;;28.60;90.30;;;;;;5085823;28;20110;-68
2021/07/18 10:07:34;;;;;;;3.35;1.10;;;28.60;89.60;;;;;;5083729;28;20048;-68
2021/07/18 10:10:04;;;;;;;7.15;1.85;;;28.60;88.40;;;;;;5080075;28;20507;-68
2021/07/18 10:12:30;;;;;;;5.22;1.27;;;28.70;90.10;;;;;;5085035;28;20040;-68
2021/07/18 10:14:58;;;;;;;2.65;1.05;;;28.70;90.10;;;;;;5087287;28;20057;-68
2021/07/18 10:17:24;;;;;;;3.90;1.00;;;28.80;90.40;;;;;;5086082;28;20040;-68
2021/07/18 10:19:50;;;;;;;6.60;0.95;;;28.80;90.70;;;;;;5082343;28;20036;-69
2021/07/18 10:22:18;;;;;;;3.38;1.30;;;28.90;90.00;;;;;;5085025;28;20047;-68
2021/07/18 10:24:46;;;;;;;2.97;1.20;;;29.00;90.10;;;;;;5085443;28;20044;-68
2021/07/18 10:27:12;;;;;;;2.70;1.00;;;29.00;89.50;;;;;;5086856;28;20124;-68
2021/07/18 10:29:40;;;;;;;3.72;1.00;;;28.90;89.90;;;;;;5078593;28;20047;-69
2021/07/18 10:32:09;;;;;;;1.83;1.00;;;29.00;90.40;;;;;;5084927;28;20115;-69
2021/07/18 10:34:35;;;;;;;2.75;1.83;;;29.10;89.60;;;;;;5078949;28;20044;-70
2021/07/18 10:37:09;;;;;;;1.85;1.08;;;29.10;88.50;;;;;;5077575;28;20082;-69
2021/07/18 10:39:43;;;;;;;6.88;1.20;;;29.20;86.70;;;;;;5074452;28;20425;-68
2021/07/18 10:42:34;;;;;;;8.13;1.65;;;29.10;86.20;;;;;;5077864;28;20123;-68
2021/07/18 10:45:15;;;;;;;4.35;1.40;;;29.10;91.30;;;;;;5080177;28;20447;-69
2021/07/18 10:47:54;;;;;;;1.48;0.98;;;29.20;89.00;;;;;;5082922;28;20050;-69
2021/07/18 10:50:41;;;;;;;3.08;1.50;;;29.20;85.40;;;;;;5078542;28;20047;-69
2021/07/18 10:53:25;;;;;;;1.92;1.30;;;29.00;84.40;;;;;;5087127;28;20044;-68
2021/07/18 10:55:52;;;;;;;4.10;1.35;;;29.10;87.10;;;;;;5087492;28;20044;-68
2021/07/18 10:58:42;;;;;;;1.83;1.38;;;29.10;86.00;;;;;;5083592;28;20040;-68
2021/07/18 11:01:10;;;;;;;4.30;1.63;;;29.20;84.20;;;;;;5087875;28;20040;-69
2021/07/18 11:03:45;;;;;;;1.80;1.42;;;29.20;82.60;;;;;;5089262;28;20114;-69
2021/07/18 11:06:20;;;;;;;;;;;29.10;85.60;;;;;;5085765;28;20059;-68
2021/07/18 11:09:19;;;;;;;2.83;1.23;;;28.80;88.90;;;;;;5082223;28;20380;-69
2021/07/18 11:11:51;;;;;;;3.95;1.38;;;28.80;90.80;;;;;;5042998;28;20044;-69
2021/07/18 11:14:36;;;;;;;2.55;1.10;;;28.90;90.00;;;;;;5089921;28;20127;-69
2021/07/18 11:17:04;;;;;;;2.05;1.20;;;28.70;90.10;;;;;;5088424;28;20097;-68
2021/07/18 11:19:39;;;;;;;4.05;1.90;;;28.50;90.00;;;;;;5085338;28;20063;-68
2021/07/18 11:22:10;;;;;;;4.90;0.80;;;28.50;88.40;;;;;;5088355;28;20115;-68
2021/07/18 11:24:56;;;;;;;2.50;1.13;;;28.50;88.40;;;;;;5088004;28;20067;-68
2021/07/18 11:27:29;;;;;;;1.85;0.98;;;28.60;89.10;;;;;;5086568;28;20048;-69
2021/07/18 11:29:56;;;;;;;1.88;0.93;;;28.60;89.20;;;;;;5084496;28;20044;-68
2021/07/18 11:32:28;;;;;;;4.15;1.00;;;28.60;89.20;;;;;;5088971;28;21020;-68
2021/07/18 11:34:54;;;;;;;3.72;1.20;;;28.70;90.00;;;;;;5088798;28;20040;-68
2021/07/18 11:37:25;;;;;;;2.40;1.20;;;28.70;89.70;;;;;;5088433;28;20064;-68
2021/07/18 11:39:50;;;;;;;3.50;1.33;;;28.70;86.30;;;;;;5084633;28;20036;-68
2021/07/18 11:42:17;;;;;;;4.72;1.48;;;28.80;87.40;;;;;;5088109;28;20118;-68
2021/07/18 11:44:46;;;;;;;3.25;1.27;;;28.70;87.10;;;;;;5089961;28;20104;-69
2021/07/18 11:47:15;;;;;;;3.25;1.00;;;28.80;86.20;;;;;;5085376;28;20048;-68
2021/07/18 11:49:43;;;;;;;3.35;1.00;;;28.80;87.20;;;;;;5081424;28;20165;-68
2021/07/18 11:52:10;;;;;;;3.63;1.30;;;28.80;86.30;;;;;;5087115;28;20484;-68
2021/07/18 11:54:36;;;;;;;4.07;1.63;;;28.80;86.20;;;;;;5088302;28;20044;-68
2021/07/18 11:57:06;;;;;;;3.13;1.15;;;28.60;90.10;;;;;;5087852;28;20068;-68
2021/07/18 11:59:32;;;;;;;6.75;1.60;;;28.60;90.10;;;;;;5082913;28;20050;-68
2021/07/18 12:01:58;;;;;;;5.38;1.17;;;28.50;90.70;;;;;;5083606;28;20497;-68
2021/07/18 12:04:26;;;;;;;3.97;1.42;;;28.50;90.50;;;;;;5087033;28;20039;-68
2021/07/18 12:06:53;;;;;;;4.28;1.95;;;28.40;90.30;;;;;;5089190;28;20048;-68
2021/07/18 12:09:22;;;;;;;11.45;1.50;;;28.30;90.70;;;;;;5082347;28;20040;-67
2021/07/18 12:11:50;;;;;;;2.75;1.33;;;28.20;90.00;;;;;;5086668;28;20513;-67
2021/07/18 12:14:16;;;;;;;2.15;1.23;;;28.20;90.50;;;;;;5088881;28;20135;-67
2021/07/18 12:16:44;;;;;;;3.47;1.40;;;28.10;91.10;;;;;;5088769;28;20040;-67
2021/07/18 12:19:12;;;;;;;4.15;1.60;;;28.10;90.30;;;;;;5083806;28;20036;-67
2021/07/18 12:21:43;;;;;;;4.15;1.45;;;28.10;89.10;;;;;;5088489;28;20051;-68
2021/07/18 12:24:16;;;;;;;5.40;1.60;;;28.20;90.60;;;;;;5086567;28;20102;-67
2021/07/18 12:27:04;;;;;;;2.85;1.33;;;28.20;91.10;;;;;;5088198;28;20043;-67
2021/07/18 12:30:00;;;;;;;5.43;1.55;;;28.20;89.20;;;;;;5052838;28;20409;-67
2021/07/18 12:32:29;;;;;;;4.30;1.20;;;28.20;90.00;;;;;;5086722;28;20414;-67
2021/07/18 12:34:55;;;;;;;2.35;1.10;;;28.20;91.60;;;;;;5087976;28;20494;-67
2021/07/18 12:37:28;;;;;;;3.05;1.52;;;28.30;91.20;;;;;;5088918;28;20047;-67
2021/07/18 12:40:00;;;;;;;11.55;1.80;;;28.30;88.60;;;;;;5082104;28;20470;-67
2021/07/18 12:42:32;;;;;;;6.15;2.15;;;28.20;87.80;;;;;;5087529;28;20039;-67
2021/07/18 12:45:08;;;;;;;7.05;1.50;;;28.20;88.70;;;;;;5087434;28;20036;-68
2021/07/18 12:47:42;;;;;;;2.42;1.35;;;28.10;85.20;;;;;;5084057;28;20043;-67